Time;durP1;ratioP1;P1;durP2;ratioP2;P2;SDS_P1;SDS_P2;PMS_P1;PMS_P2;Temp;Humidity;BMP_temperature;BMP_pressure;BME280_temperature;BME280_humidity;BME280_pressure;Samples;Min_cycle;Max_cycle;Signal;HPM_P1;HPM_P2
2023/11/04 00:01:47;;;;;;;0.20;0.20;;;;;;;11.58;64.89;98546.91;5066001;28;20037;-78
2023/11/04 00:04:13;;;;;;;0.20;0.20;;;;;;;11.64;65.33;98551.84;5061171;28;20047;-79
2023/11/04 00:06:39;;;;;;;0.20;0.20;;;;;;;11.55;65.41;98556.84;5067755;28;20028;-79
2023/11/04 00:09:06;;;;;;;0.10;0.10;;;;;;;11.67;65.22;98555.28;5067363;28;20029;-78
2023/11/04 00:11:32;;;;;;;0.00;0.00;;;;;;;11.61;65.47;98546.75;5067506;28;20009;-79
2023/11/04 00:13:58;;;;;;;0.10;0.10;;;;;;;11.77;65.03;98545.78;5067702;28;20110;-80
2023/11/04 00:16:25;;;;;;;0.10;0.10;;;;;;;11.79;64.70;98549.22;5067054;28;20025;-81
2023/11/04 00:18:52;;;;;;;0.10;0.10;;;;;;;11.73;65.16;98550.44;5067447;28;20057;-80
2023/11/04 00:21:18;;;;;;;0.10;0.10;;;;;;;11.81;64.64;98549.94;5066507;28;20029;-80
2023/11/04 00:23:45;;;;;;;0.10;0.10;;;;;;;11.87;64.61;98546.06;5059266;28;20032;-79
2023/11/04 00:26:11;;;;;;;0.10;0.10;;;;;;;11.75;65.51;98543.25;5064933;28;20491;-79
2023/11/04 00:28:37;;;;;;;0.10;0.10;;;;;;;11.83;65.38;98550.72;5061188;28;20033;-80
2023/11/04 00:31:03;;;;;;;0.10;0.10;;;;;;;11.75;65.09;98548.56;5066444;28;20035;-80
2023/11/04 00:33:30;;;;;;;0.10;0.10;;;;;;;11.78;65.44;98552.81;5067808;28;20025;-80
2023/11/04 00:35:57;;;;;;;0.10;0.10;;;;;;;11.78;65.27;98543.03;5065977;28;20376;-80
2023/11/04 00:38:23;;;;;;;0.10;0.10;;;;;;;11.80;65.54;98549.13;5067936;28;20039;-79
2023/11/04 00:40:49;;;;;;;0.20;0.20;;;;;;;11.86;65.28;98539.91;5065073;28;20053;-79
2023/11/04 00:43:15;;;;;;;0.13;0.13;;;;;;;11.90;65.90;98538.78;5069686;28;20032;-79
2023/11/04 00:45:41;;;;;;;0.10;0.10;;;;;;;11.99;64.92;98537.38;5065325;28;20036;-78
2023/11/04 00:48:07;;;;;;;0.03;0.03;;;;;;;11.88;65.61;98545.97;5067132;28;20049;-78
2023/11/04 00:50:33;;;;;;;0.90;0.90;;;;;;;11.90;65.83;98530.81;5071036;28;20025;-79
2023/11/04 00:52:59;;;;;;;0.17;0.17;;;;;;;11.94;65.52;98537.63;5071010;28;20021;-80
2023/11/04 00:55:25;;;;;;;0.30;0.30;;;;;;;11.92;65.44;98531.56;5070831;28;20013;-80
2023/11/04 00:57:52;;;;;;;0.10;0.10;;;;;;;12.07;65.51;98520.97;5070425;28;20101;-79
2023/11/04 01:00:23;;;;;;;0.13;0.13;;;;;;;12.01;65.79;98524.00;5066223;28;20047;-78
2023/11/04 01:02:50;;;;;;;0.50;0.50;;;;;;;12.06;65.68;98529.88;5071894;28;20040;-80
2023/11/04 01:05:16;;;;;;;0.30;0.30;;;;;;;11.97;65.80;98528.66;5067275;28;20040;-81
2023/11/04 01:07:42;;;;;;;0.10;0.10;;;;;;;12.11;65.72;98522.47;5064810;28;20104;-79
2023/11/04 01:10:08;;;;;;;0.10;0.10;;;;;;;12.12;65.16;98524.19;5070203;28;20067;-78
2023/11/04 01:12:34;;;;;;;0.20;0.20;;;;;;;12.04;66.13;98521.19;5071344;28;20056;-80
2023/11/04 01:15:00;;;;;;;0.10;0.10;;;;;;;12.05;65.79;98521.06;5072375;28;20025;-77
2023/11/04 01:17:27;;;;;;;0.17;0.17;;;;;;;11.95;66.15;98518.13;5071817;28;20037;-79
2023/11/04 01:19:53;;;;;;;0.10;0.10;;;;;;;12.02;65.65;98525.72;5073221;28;20033;-78
2023/11/04 01:22:19;;;;;;;0.20;0.20;;;;;;;12.05;65.84;98522.84;5073576;28;20025;-78
2023/11/04 01:24:45;;;;;;;0.20;0.20;;;;;;;11.98;66.25;98515.28;5070310;28;20029;-79
2023/11/04 01:27:11;;;;;;;0.10;0.10;;;;;;;12.20;65.76;98513.06;5072305;28;20033;-79
2023/11/04 01:29:37;;;;;;;0.20;0.20;;;;;;;12.19;65.40;98519.34;5070152;28;20029;-80
2023/11/04 01:32:05;;;;;;;0.20;0.20;;;;;;;12.18;65.70;98518.47;5071121;28;20040;-79
2023/11/04 01:34:31;;;;;;;0.20;0.20;;;;;;;12.06;66.35;98508.66;5070563;28;20021;-79
2023/11/04 01:36:58;;;;;;;0.20;0.20;;;;;;;12.20;65.83;98515.72;5070344;28;20032;-79
2023/11/04 01:39:24;;;;;;;0.20;0.20;;;;;;;12.14;66.34;98519.63;5070705;28;20033;-78
2023/11/04 01:41:50;;;;;;;0.35;0.35;;;;;;;12.17;66.29;98511.47;5072014;28;20036;-80
2023/11/04 01:44:16;;;;;;;0.10;0.10;;;;;;;12.25;65.82;98514.50;5071659;28;20040;-80
2023/11/04 01:46:43;;;;;;;0.10;0.10;;;;;;;12.20;65.90;98516.59;5071610;28;20132;-79
2023/11/04 01:49:10;;;;;;;0.30;0.30;;;;;;;12.26;65.95;98508.22;5071021;28;20013;-79
2023/11/04 01:51:36;;;;;;;0.20;0.20;;;;;;;12.32;65.90;98503.47;5071392;28;20033;-79
2023/11/04 01:54:03;;;;;;;0.10;0.10;;;;;;;12.21;66.39;98509.47;5070794;28;20135;-80
2023/11/04 01:56:34;;;;;;;0.10;0.10;;;;;;;12.42;66.18;98505.44;5068387;28;20025;-79
2023/11/04 01:59:02;;;;;;;0.10;0.10;;;;;;;12.29;66.49;98510.69;5071193;28;20040;-78
2023/11/04 02:01:30;;;;;;;1.65;0.75;;;;;;;12.31;65.86;98497.28;5068926;28;20086;-78
2023/11/04 02:03:57;;;;;;;0.10;0.10;;;;;;;12.33;66.12;98494.56;5070155;28;20045;-78
2023/11/04 02:06:23;;;;;;;0.10;0.10;;;;;;;12.35;66.06;98503.25;5069966;28;20538;-79
2023/11/04 02:08:49;;;;;;;0.10;0.10;;;;;;;12.27;66.21;98501.97;5070295;28;20025;-79
2023/11/04 02:11:15;;;;;;;0.20;0.20;;;;;;;12.27;66.34;98509.94;5069316;28;20092;-79
2023/11/04 02:13:41;;;;;;;0.10;0.10;;;;;;;12.21;66.51;98502.38;5070832;28;20118;-78
2023/11/04 02:16:07;;;;;;;1.10;0.38;;;;;;;12.18;66.82;98491.94;5067746;28;20040;-80
2023/11/04 02:18:34;;;;;;;0.10;0.10;;;;;;;12.33;66.83;98489.25;5070946;28;20060;-78
2023/11/04 02:21:00;;;;;;;0.10;0.10;;;;;;;12.25;66.85;98493.25;5071100;28;20048;-80
2023/11/04 02:23:27;;;;;;;0.28;0.28;;;;;;;12.30;66.76;98488.50;5070503;28;20033;-80
2023/11/04 02:25:54;;;;;;;0.20;0.20;;;;;;;12.35;66.30;98493.50;5070529;28;20025;-79
2023/11/04 02:28:21;;;;;;;0.32;0.32;;;;;;;12.38;66.79;98482.66;5069781;28;20025;-79
2023/11/04 02:30:47;;;;;;;0.10;0.10;;;;;;;12.37;66.48;98488.09;5068878;28;20037;-78
2023/11/04 02:33:14;;;;;;;0.10;0.10;;;;;;;12.41;66.82;98486.94;5071395;28;20040;-77
2023/11/04 02:35:40;;;;;;;0.10;0.10;;;;;;;12.39;66.82;98494.16;5070260;28;20017;-78
2023/11/04 02:38:07;;;;;;;6.68;2.08;;;;;;;12.26;66.99;98481.69;5071134;28;20025;-78
2023/11/04 02:40:33;;;;;;;0.20;0.20;;;;;;;12.44;66.60;98474.31;5068370;28;20041;-78
2023/11/04 02:42:59;;;;;;;0.80;0.65;;;;;;;12.30;66.96;98472.56;5071114;28;20025;-77
2023/11/04 02:45:26;;;;;;;0.30;0.30;;;;;;;12.40;66.38;98467.50;5070141;28;20031;-76
2023/11/04 02:47:52;;;;;;;0.20;0.20;;;;;;;12.49;66.61;98467.84;5067663;28;20037;-78
2023/11/04 02:50:18;;;;;;;0.35;0.35;;;;;;;12.51;65.86;98465.94;5069260;28;20048;-77
2023/11/04 02:52:44;;;;;;;0.40;0.40;;;;;;;12.35;66.51;98460.78;5068863;28;20044;-79
2023/11/04 02:55:10;;;;;;;0.10;0.10;;;;;;;12.44;66.07;98461.03;5067948;28;20036;-79
2023/11/04 02:57:36;;;;;;;0.20;0.20;;;;;;;12.45;65.97;98459.25;5068539;28;20056;-78
2023/11/04 03:00:04;;;;;;;0.10;0.10;;;;;;;12.40;66.29;98458.66;5066509;28;20088;-78
2023/11/04 03:02:30;;;;;;;0.10;0.10;;;;;;;12.36;66.21;98454.50;5068552;28;20035;-79
2023/11/04 03:04:56;;;;;;;0.52;0.52;;;;;;;12.29;66.15;98452.25;5069352;28;20025;-78
2023/11/04 03:07:22;;;;;;;0.20;0.20;;;;;;;12.15;66.49;98452.31;5069098;28;20033;-78
2023/11/04 03:09:48;;;;;;;0.10;0.10;;;;;;;12.28;66.42;98453.22;5068791;28;20033;-79
2023/11/04 03:12:15;;;;;;;0.30;0.30;;;;;;;12.18;66.72;98448.63;5068252;28;20025;-78
2023/11/04 03:14:44;;;;;;;0.10;0.10;;;;;;;12.09;66.86;98455.38;5069614;28;20039;-79
2023/11/04 03:17:10;;;;;;;0.73;0.73;;;;;;;12.03;67.50;98453.13;5069181;28;20037;-78
2023/11/04 03:19:36;;;;;;;0.10;0.10;;;;;;;12.04;67.22;98453.00;5068639;28;20033;-78
2023/11/04 03:22:02;;;;;;;0.93;0.93;;;;;;;12.02;67.28;98451.41;5070293;28;20021;-79
2023/11/04 03:24:28;;;;;;;1.02;0.95;;;;;;;11.96;67.28;98440.25;5070296;28;20056;-80
2023/11/04 03:26:55;;;;;;;0.25;0.25;;;;;;;11.89;68.14;98448.66;5069787;28;20009;-77
2023/11/04 03:29:21;;;;;;;0.10;0.10;;;;;;;11.94;67.98;98441.25;5069394;28;20031;-80
2023/11/04 03:31:47;;;;;;;0.20;0.20;;;;;;;12.02;67.60;98446.94;5069211;28;20033;-77
2023/11/04 03:34:13;;;;;;;0.10;0.10;;;;;;;12.06;68.00;98436.97;5070638;28;20024;-78
2023/11/04 03:36:39;;;;;;;0.10;0.10;;;;;;;12.06;67.43;98431.69;5069872;28;20021;-78
2023/11/04 03:39:05;;;;;;;0.75;0.75;;;;;;;12.13;67.69;98433.81;5069358;28;20057;-77
2023/11/04 03:41:31;;;;;;;0.10;0.10;;;;;;;12.13;67.79;98436.47;5069241;28;20029;-78
2023/11/04 03:43:57;;;;;;;0.10;0.10;;;;;;;12.13;67.66;98440.94;5068352;28;20024;-78
2023/11/04 03:46:23;;;;;;;0.40;0.40;;;;;;;12.21;67.89;98443.97;5068128;28;20021;-78
2023/11/04 03:48:50;;;;;;;0.20;0.20;;;;;;;12.20;67.98;98442.25;5066134;28;20021;-78
2023/11/04 03:51:16;;;;;;;0.13;0.13;;;;;;;12.16;68.00;98435.44;5067650;28;20080;-79
2023/11/04 03:53:42;;;;;;;0.17;0.17;;;;;;;12.19;67.68;98437.91;5068567;28;20096;-77
2023/11/04 03:56:08;;;;;;;0.15;0.15;;;;;;;12.21;67.68;98432.47;5068880;28;20013;-79
2023/11/04 03:58:34;;;;;;;0.10;0.10;;;;;;;12.25;67.73;98418.03;5068409;28;20037;-78
2023/11/04 04:01:03;;;;;;;0.10;0.10;;;;;;;12.30;67.27;98422.09;5067586;28;20028;-79
2023/11/04 04:03:29;;;;;;;0.20;0.20;;;;;;;12.36;67.08;98425.31;5068947;28;20036;-78
2023/11/04 04:05:55;;;;;;;0.10;0.10;;;;;;;12.27;67.57;98417.00;5067337;28;20031;-78
2023/11/04 04:08:21;;;;;;;0.35;0.35;;;;;;;12.29;67.69;98415.09;5050086;28;20112;-79
2023/11/04 04:10:47;;;;;;;0.47;0.47;;;;;;;12.34;67.57;98413.97;5066540;28;20025;-78
2023/11/04 04:13:13;;;;;;;0.10;0.10;;;;;;;12.27;66.99;98410.84;5068091;28;20044;-78
2023/11/04 04:15:39;;;;;;;0.10;0.10;;;;;;;12.22;67.00;98413.78;5067204;28;20021;-77
2023/11/04 04:18:05;;;;;;;0.10;0.10;;;;;;;12.23;67.04;98415.50;5068530;28;20037;-79
2023/11/04 04:20:31;;;;;;;1.25;0.55;;;;;;;12.16;67.13;98418.66;5069934;28;20044;-78
2023/11/04 04:22:58;;;;;;;0.30;0.30;;;;;;;12.23;66.95;98410.19;5070651;28;20029;-78
2023/11/04 04:25:24;;;;;;;0.40;0.40;;;;;;;12.21;67.60;98416.56;5070814;28;20032;-78
2023/11/04 04:27:50;;;;;;;0.20;0.20;;;;;;;12.23;67.31;98410.19;5071585;28;20033;-77
2023/11/04 04:30:16;;;;;;;0.20;0.20;;;;;;;12.17;67.81;98413.25;5068158;28;20029;-81
2023/11/04 04:32:42;;;;;;;0.20;0.20;;;;;;;12.14;67.80;98410.81;5069346;28;20025;-78
2023/11/04 04:35:08;;;;;;;0.13;0.13;;;;;;;12.22;67.98;98413.78;5070299;28;20033;-78
2023/11/04 04:37:34;;;;;;;0.20;0.20;;;;;;;12.11;67.74;98409.19;5072372;28;20042;-79
2023/11/04 04:40:01;;;;;;;2.47;0.75;;;;;;;12.21;67.84;98404.16;5069112;28;20044;-79
2023/11/04 04:42:27;;;;;;;0.40;0.40;;;;;;;12.25;67.43;98408.28;5070131;28;20035;-79
2023/11/04 04:44:53;;;;;;;0.63;0.63;;;;;;;12.12;68.47;98402.06;5071012;28;20156;-80
2023/11/04 04:47:19;;;;;;;0.28;0.28;;;;;;;12.19;67.54;98402.53;5070624;28;20021;-80
2023/11/04 04:49:45;;;;;;;0.20;0.20;;;;;;;12.18;67.96;98396.38;5071704;28;20029;-80
2023/11/04 04:52:11;;;;;;;0.10;0.10;;;;;;;12.28;67.74;98388.66;5071727;28;20028;-80
2023/11/04 04:54:37;;;;;;;0.10;0.10;;;;;;;12.26;67.43;98387.88;5073035;28;20033;-78
2023/11/04 04:57:04;;;;;;;0.17;0.17;;;;;;;12.22;67.58;98381.94;5072131;28;20017;-80
2023/11/04 04:59:30;;;;;;;0.55;0.55;;;;;;;12.29;67.59;98377.91;5072754;28;20032;-78
2023/11/04 05:01:56;;;;;;;0.10;0.10;;;;;;;12.29;67.44;98375.25;5071808;28;20017;-79
2023/11/04 05:04:23;;;;;;;0.15;0.15;;;;;;;12.26;67.23;98379.94;5072490;28;20480;-80
2023/11/04 05:06:49;;;;;;;0.10;0.10;;;;;;;12.15;67.57;98364.72;5072011;28;20088;-79
2023/11/04 05:09:15;;;;;;;0.20;0.20;;;;;;;12.11;67.61;98369.38;5066830;28;20021;-79
2023/11/04 05:11:41;;;;;;;0.13;0.13;;;;;;;12.11;67.34;98366.75;5062773;28;20025;-78
2023/11/04 05:14:07;;;;;;;0.17;0.17;;;;;;;12.03;67.32;98365.53;5068633;28;20025;-78
2023/11/04 05:16:35;;;;;;;0.10;0.10;;;;;;;12.00;66.89;98360.41;5070549;28;20185;-79
2023/11/04 05:19:01;;;;;;;0.20;0.20;;;;;;;11.92;67.34;98353.78;5071827;28;20028;-79
2023/11/04 05:21:27;;;;;;;0.20;0.20;;;;;;;11.81;67.95;98350.97;5071846;28;20084;-80
2023/11/04 05:23:53;;;;;;;0.20;0.20;;;;;;;11.74;67.53;98350.53;5074128;28;20056;-77
2023/11/04 05:26:21;;;;;;;0.17;0.17;;;;;;;11.70;67.64;98348.16;5072659;28;20021;-80
2023/11/04 05:28:47;;;;;;;0.17;0.17;;;;;;;11.60;68.10;98343.47;5071740;28;20029;-78
2023/11/04 05:31:13;;;;;;;0.50;0.50;;;;;;;11.51;68.60;98344.03;5072195;28;20029;-78
2023/11/04 05:33:41;;;;;;;0.15;0.15;;;;;;;11.49;69.09;98340.66;5072436;28;20044;-77
2023/11/04 05:36:07;;;;;;;0.35;0.35;;;;;;;11.43;69.21;98335.75;5072911;28;20025;-79
2023/11/04 05:38:33;;;;;;;0.10;0.10;;;;;;;11.41;68.84;98340.28;5072542;28;20070;-79
2023/11/04 05:41:01;;;;;;;0.20;0.20;;;;;;;11.35;69.29;98336.22;5071882;28;20025;-79
2023/11/04 05:43:27;;;;;;;0.20;0.20;;;;;;;11.36;69.17;98329.13;5071746;28;20504;-80
2023/11/04 05:45:53;;;;;;;0.20;0.20;;;;;;;11.34;69.53;98326.59;5071394;28;20025;-78
2023/11/04 05:48:20;;;;;;;0.10;0.10;;;;;;;11.38;69.18;98320.13;5071921;28;20021;-80
2023/11/04 05:50:46;;;;;;;0.10;0.10;;;;;;;11.37;69.82;98320.22;5072061;28;20051;-80
2023/11/04 05:53:13;;;;;;;0.10;0.10;;;;;;;11.30;70.38;98320.63;5071564;28;20029;-79
2023/11/04 05:55:40;;;;;;;0.20;0.20;;;;;;;11.35;70.24;98316.81;5052351;28;20027;-79
2023/11/04 05:58:06;;;;;;;0.15;0.15;;;;;;;11.41;69.85;98311.13;5068026;28;20427;-79
2023/11/04 06:00:32;;;;;;;0.35;0.35;;;;;;;11.39;70.30;98308.59;5070009;28;20032;-80
2023/11/04 06:02:58;;;;;;;0.10;0.10;;;;;;;11.37;70.24;98302.50;5070659;28;20071;-79
2023/11/04 06:05:25;;;;;;;11.30;3.17;;;;;;;11.39;69.85;98305.06;5071645;28;20028;-79
2023/11/04 06:07:51;;;;;;;0.30;0.30;;;;;;;11.43;69.32;98298.63;5071815;28;20047;-79
2023/11/04 06:10:17;;;;;;;0.20;0.20;;;;;;;11.38;70.04;98290.97;5070510;28;20081;-78
2023/11/04 06:12:43;;;;;;;0.13;0.13;;;;;;;11.42;69.83;98291.63;5071037;28;20045;-80
2023/11/04 06:15:10;;;;;;;0.10;0.10;;;;;;;11.41;69.59;98292.56;5071843;28;20055;-80
2023/11/04 06:17:36;;;;;;;0.20;0.20;;;;;;;11.41;70.06;98284.63;5071610;28;20404;-80
2023/11/04 06:20:03;;;;;;;0.73;0.73;;;;;;;11.40;70.39;98285.56;5071466;28;20029;-79
2023/11/04 06:22:29;;;;;;;0.22;0.22;;;;;;;11.48;70.07;98291.22;5072752;28;20032;-77
2023/11/04 06:24:55;;;;;;;0.20;0.20;;;;;;;11.46;70.17;98294.00;5072209;28;20731;-79
2023/11/04 06:27:21;;;;;;;0.10;0.10;;;;;;;11.55;70.17;98281.94;5071316;28;20100;-78
2023/11/04 06:29:47;;;;;;;0.20;0.20;;;;;;;11.57;69.98;98284.47;5070959;28;20048;-79
2023/11/04 06:32:13;;;;;;;0.47;0.47;;;;;;;11.61;70.09;98281.53;5071980;28;20534;-78
2023/11/04 06:34:40;;;;;;;0.20;0.20;;;;;;;11.69;70.38;98272.19;5070927;28;20452;-79
2023/11/04 06:37:06;;;;;;;0.20;0.20;;;;;;;11.69;69.89;98273.06;5070146;28;20036;-78
2023/11/04 06:39:32;;;;;;;0.20;0.20;;;;;;;11.76;69.83;98268.19;5070578;28;20120;-79
2023/11/04 06:41:59;;;;;;;0.20;0.20;;;;;;;11.73;69.83;98271.06;5069485;28;20069;-79
2023/11/04 06:44:25;;;;;;;0.10;0.10;;;;;;;11.80;69.51;98269.69;5071119;28;20029;-79
2023/11/04 06:46:52;;;;;;;0.10;0.10;;;;;;;11.84;69.41;98276.50;5069182;28;20025;-78
2023/11/04 06:49:20;;;;;;;0.30;0.30;;;;;;;11.79;69.30;98271.50;5069023;28;20017;-78
2023/11/04 06:51:46;;;;;;;0.10;0.10;;;;;;;11.90;68.88;98275.22;5069887;28;20451;-77
2023/11/04 06:54:12;;;;;;;0.10;0.10;;;;;;;11.94;69.26;98271.44;5068095;28;20025;-78
2023/11/04 06:56:38;;;;;;;0.10;0.10;;;;;;;11.92;68.29;98268.88;5066735;28;20056;-80
2023/11/04 06:59:05;;;;;;;0.10;0.10;;;;;;;11.91;68.58;98277.81;5066582;28;20492;-80
2023/11/04 07:01:31;;;;;;;0.68;0.68;;;;;;;11.91;68.38;98277.81;5069911;28;20039;-78
2023/11/04 07:03:57;;;;;;;1.15;1.05;;;;;;;11.95;68.14;98275.75;5069560;28;20040;-81
2023/11/04 07:06:24;;;;;;;0.20;0.20;;;;;;;11.92;67.77;98290.09;5069170;28;20035;-77
2023/11/04 07:08:50;;;;;;;0.50;0.50;;;;;;;11.95;67.61;98271.31;5069864;28;20062;-79
2023/11/04 07:11:17;;;;;;;0.10;0.10;;;;;;;12.00;67.83;98270.19;5069446;28;20036;-78
2023/11/04 07:13:43;;;;;;;0.10;0.10;;;;;;;11.98;67.91;98265.84;5070610;28;20013;-79
2023/11/04 07:16:11;;;;;;;0.17;0.17;;;;;;;12.06;67.59;98253.84;5069687;28;20055;-79
2023/11/04 07:18:38;;;;;;;0.30;0.30;;;;;;;12.11;67.08;98259.69;5071018;28;20040;-79
2023/11/04 07:21:05;;;;;;;0.10;0.10;;;;;;;12.08;66.96;98259.91;5070086;28;20028;-78
2023/11/04 07:23:31;;;;;;;0.10;0.10;;;;;;;12.09;67.04;98254.50;5069894;28;20089;-78
2023/11/04 07:25:57;;;;;;;0.10;0.10;;;;;;;12.13;66.79;98260.44;5067983;28;20032;-77
2023/11/04 07:28:24;;;;;;;0.20;0.20;;;;;;;12.16;66.40;98243.47;5069754;28;20043;-78
2023/11/04 07:30:51;;;;;;;0.20;0.20;;;;;;;12.18;66.32;98230.94;5069005;28;20108;-78
2023/11/04 07:33:19;;;;;;;0.10;0.10;;;;;;;12.17;66.08;98234.56;5070341;28;20031;-79
2023/11/04 07:35:46;;;;;;;0.30;0.30;;;;;;;12.24;66.07;98217.25;5068249;28;20032;-81
2023/11/04 07:38:12;;;;;;;0.10;0.10;;;;;;;12.34;66.02;98220.13;5069579;28;20128;-78
2023/11/04 07:40:39;;;;;;;0.10;0.10;;;;;;;12.23;65.36;98216.38;5069490;28;20028;-78
2023/11/04 07:43:06;;;;;;;0.30;0.30;;;;;;;12.25;65.83;98221.59;5070777;28;20454;-79
2023/11/04 07:45:33;;;;;;;0.10;0.10;;;;;;;12.27;65.84;98220.56;5070353;28;20040;-77
2023/11/04 07:47:59;;;;;;;0.20;0.20;;;;;;;12.33;65.60;98218.44;5070567;28;20139;-79
2023/11/04 07:50:25;;;;;;;0.10;0.10;;;;;;;12.21;65.94;98220.97;5068059;28;20028;-78
2023/11/04 07:52:51;;;;;;;0.10;0.10;;;;;;;12.25;65.53;98208.31;5071169;28;20040;-79
2023/11/04 07:55:17;;;;;;;0.10;0.10;;;;;;;12.40;66.16;98209.06;5072890;28;20041;-77
2023/11/04 07:57:43;;;;;;;1.98;1.85;;;;;;;12.38;65.93;98195.88;5072934;28;20089;-79
2023/11/04 08:00:11;;;;;;;0.30;0.30;;;;;;;12.35;64.99;98188.16;5071187;28;20029;-78
2023/11/04 08:02:38;;;;;;;0.10;0.10;;;;;;;12.27;64.66;98178.06;5073060;28;20025;-78
2023/11/04 08:05:05;;;;;;;0.10;0.10;;;;;;;12.35;64.37;98179.31;5073754;28;20076;-79
2023/11/04 08:07:31;;;;;;;1.00;1.00;;;;;;;12.28;64.29;98181.56;5073304;28;20025;-79
2023/11/04 08:10:00;;;;;;;0.10;0.10;;;;;;;12.26;64.34;98170.19;5073026;28;20040;-79
2023/11/04 08:12:26;;;;;;;0.10;0.10;;;;;;;12.22;64.34;98158.09;5072839;28;20116;-79
2023/11/04 08:14:52;;;;;;;0.10;0.10;;;;;;;12.21;64.87;98156.41;5073258;28;20028;-79
2023/11/04 08:17:18;;;;;;;0.10;0.10;;;;;;;12.12;64.98;98155.22;5071480;28;20035;-79
2023/11/04 08:19:44;;;;;;;0.20;0.20;;;;;;;12.10;64.79;98152.69;5069520;28;20036;-82
2023/11/04 08:22:13;;;;;;;0.10;0.10;;;;;;;12.21;64.77;98141.34;5071523;28;20029;-80
2023/11/04 08:24:39;;;;;;;0.10;0.10;;;;;;;12.16;64.46;98131.97;5070025;28;20051;-80
2023/11/04 08:27:05;;;;;;;0.10;0.10;;;;;;;12.24;64.57;98121.69;5068093;28;20017;-81
2023/11/04 08:29:32;;;;;;;0.10;0.10;;;;;;;12.26;64.64;98117.97;5065919;28;20032;-80
2023/11/04 08:31:58;;;;;;;0.10;0.10;;;;;;;12.28;64.37;98116.03;5063716;28;20040;-78
2023/11/04 08:34:25;;;;;;;11.90;1.15;;;;;;;12.33;64.05;98114.88;5065585;28;20029;-83
2023/11/04 08:36:51;;;;;;;0.10;0.10;;;;;;;12.37;64.56;98105.72;5070755;28;20032;-81
2023/11/04 08:39:17;;;;;;;0.10;0.10;;;;;;;12.33;63.86;98106.91;5069361;28;20055;-80
2023/11/04 08:41:45;;;;;;;0.10;0.10;;;;;;;12.43;64.26;98102.63;5065064;28;20037;-80
2023/11/04 08:44:12;;;;;;;0.10;0.10;;;;;;;12.52;64.36;98096.66;5060455;28;20055;-81
2023/11/04 08:46:38;;;;;;;0.30;0.30;;;;;;;12.45;63.57;98095.41;5066522;28;20057;-82
2023/11/04 08:49:06;;;;;;;0.10;0.10;;;;;;;12.55;63.70;98083.16;5068618;28;20041;-81
2023/11/04 08:51:33;;;;;;;0.13;0.13;;;;;;;12.49;63.11;98080.13;5069510;28;20059;-80
2023/11/04 08:53:59;;;;;;;0.10;0.10;;;;;;;12.49;63.64;98072.97;5068588;28;20024;-79
2023/11/04 08:56:26;;;;;;;0.10;0.10;;;;;;;12.73;63.89;98082.78;5069066;28;20044;-79
2023/11/04 08:58:53;;;;;;;0.10;0.10;;;;;;;12.67;63.79;98075.25;5062776;28;20100;-79
2023/11/04 09:01:21;;;;;;;0.32;0.32;;;;;;;12.62;63.02;98076.44;5068057;28;20084;-78
2023/11/04 09:03:49;;;;;;;1.65;1.20;;;;;;;12.74;63.15;98076.50;5065142;28;20020;-82
2023/11/04 09:06:15;;;;;;;0.10;0.10;;;;;;;12.84;63.31;98074.88;5066751;28;20021;-80
2023/11/04 09:08:42;;;;;;;0.10;0.10;;;;;;;12.89;63.35;98069.22;5067712;28;20044;-80
2023/11/04 09:11:08;;;;;;;0.10;0.10;;;;;;;12.98;63.16;98054.41;5066037;28;20088;-79
2023/11/04 09:13:34;;;;;;;0.10;0.10;;;;;;;13.02;62.96;98050.53;5068502;28;20029;-78
2023/11/04 09:16:02;;;;;;;0.10;0.10;;;;;;;13.04;62.64;98054.78;5067211;28;20029;-78
2023/11/04 09:18:28;;;;;;;0.10;0.10;;;;;;;13.17;63.17;98037.91;5065434;28;20029;-78
2023/11/04 09:20:54;;;;;;;0.10;0.10;;;;;;;13.21;62.71;98039.38;5065043;28;20062;-80
2023/11/04 09:23:21;;;;;;;0.20;0.20;;;;;;;13.22;62.59;98041.06;5066972;28;20114;-79
2023/11/04 09:25:47;;;;;;;0.10;0.10;;;;;;;13.24;61.96;98032.00;5060276;28;20047;-79
2023/11/04 09:28:13;;;;;;;0.10;0.10;;;;;;;13.16;61.96;98026.44;5064161;28;20063;-80
2023/11/04 09:30:39;;;;;;;0.10;0.10;;;;;;;13.20;62.06;98009.28;5063431;28;20040;-80
2023/11/04 09:33:05;;;;;;;0.10;0.10;;;;;;;13.21;61.57;98010.97;5066984;28;20102;-79
2023/11/04 09:35:31;;;;;;;0.47;0.47;;;;;;;13.24;61.86;98013.38;5068557;28;20044;-78
2023/11/04 09:37:58;;;;;;;0.10;0.10;;;;;;;13.24;61.67;98018.69;5062151;28;20516;-77
2023/11/04 09:40:24;;;;;;;0.10;0.10;;;;;;;13.24;61.29;97996.59;5067229;28;20037;-79
2023/11/04 09:42:50;;;;;;;23.73;0.90;;;;;;;13.29;61.25;97993.59;5064124;28;20025;-80
2023/11/04 09:45:21;;;;;;;0.10;0.10;;;;;;;13.39;61.34;97989.28;5068587;28;20029;-79
2023/11/04 09:47:48;;;;;;;17.88;2.15;;;;;;;13.34;61.41;97980.78;5061184;28;20499;-78
2023/11/04 09:50:14;;;;;;;0.10;0.10;;;;;;;13.39;61.21;97979.47;5065206;28;20044;-78
2023/11/04 09:52:45;;;;;;;0.17;0.17;;;;;;;13.37;61.08;97976.13;5064295;28;20052;-78
2023/11/04 09:55:14;;;;;;;0.10;0.10;;;;;;;13.38;60.78;97976.94;5067645;28;20024;-79
2023/11/04 09:57:41;;;;;;;0.20;0.20;;;;;;;13.42;61.04;97973.06;5064417;28;20504;-79
2023/11/04 10:00:08;;;;;;;0.10;0.10;;;;;;;13.42;60.33;97968.63;5064774;28;20507;-80
2023/11/04 10:02:35;;;;;;;0.10;0.10;;;;;;;13.51;60.41;97956.41;5064907;28;20389;-80
2023/11/04 10:05:01;;;;;;;0.10;0.10;;;;;;;13.64;60.74;97947.47;5066539;28;20058;-79
2023/11/04 10:07:27;;;;;;;0.10;0.10;;;;;;;13.62;59.86;97944.94;5064696;28;20089;-78
2023/11/04 10:09:54;;;;;;;0.17;0.17;;;;;;;13.79;60.05;97932.94;5062609;28;20044;-79
2023/11/04 10:12:21;;;;;;;0.20;0.20;;;;;;;13.78;59.99;97930.41;5067079;28;20021;-80
2023/11/04 10:14:47;;;;;;;0.10;0.10;;;;;;;13.69;59.57;97921.34;5065313;28;20033;-78
2023/11/04 10:17:13;;;;;;;0.50;0.50;;;;;;;13.61;59.43;97916.63;5069689;28;20024;-79
2023/11/04 10:19:40;;;;;;;0.10;0.10;;;;;;;13.61;59.60;97910.44;5069547;28;20040;-78
2023/11/04 10:22:06;;;;;;;0.82;0.82;;;;;;;13.67;60.41;97907.31;5063398;28;20438;-80
2023/11/04 10:24:32;;;;;;;0.20;0.20;;;;;;;13.74;60.27;97900.53;5060612;28;20032;-77
2023/11/04 10:26:59;;;;;;;0.10;0.10;;;;;;;13.78;59.93;97895.81;5068634;28;20021;-78
2023/11/04 10:29:25;;;;;;;0.10;0.10;;;;;;;13.68;59.54;97887.72;5058834;28;20030;-79
2023/11/04 10:31:55;;;;;;;1.33;1.27;;;;;;;13.65;60.30;97880.81;5061431;28;20099;-79
2023/11/04 10:34:28;;;;;;;0.10;0.10;;;;;;;13.53;60.05;97874.69;5062201;28;20021;-79
2023/11/04 10:36:55;;;;;;;0.10;0.10;;;;;;;13.59;59.85;97876.84;5064187;28;20032;-79
2023/11/04 10:39:23;;;;;;;0.20;0.20;;;;;;;13.54;59.64;97859.56;5065210;28;20108;-79
2023/11/04 10:42:10;;;;;;;0.10;0.10;;;;;;;13.77;59.99;97857.72;5052899;28;20036;-80
2023/11/04 10:44:40;;;;;;;0.20;0.20;;;;;;;13.77;60.25;97849.72;5051263;28;20093;-81
2023/11/04 10:47:32;;;;;;;0.20;0.20;;;;;;;13.79;60.16;97839.78;5056665;28;20021;-81
2023/11/04 10:50:14;;;;;;;0.10;0.10;;;;;;;13.78;60.27;97839.94;5051656;28;20021;-80
2023/11/04 10:52:53;;;;;;;0.10;0.10;;;;;;;13.81;60.26;97813.91;5057149;28;20027;-80
2023/11/04 10:55:23;;;;;;;0.10;0.10;;;;;;;13.77;60.24;97809.81;5052795;28;20115;-80
2023/11/04 10:58:02;;;;;;;0.90;0.82;;;;;;;13.77;60.27;97804.50;5056675;28;20028;-81
2023/11/04 11:00:28;;;;;;;0.10;0.10;;;;;;;13.74;60.30;97796.75;5055315;28;20033;-80
2023/11/04 11:02:56;;;;;;;0.20;0.20;;;;;;;13.74;60.35;97794.97;5052753;28;20033;-82
2023/11/04 11:05:33;;;;;;;0.10;0.10;;;;;;;13.73;59.98;97795.06;5052245;28;20036;-84
2023/11/04 11:08:03;;;;;;;1.13;1.10;;;;;;;13.72;60.40;97782.72;5056089;28;20035;-83
2023/11/04 11:10:41;;;;;;;0.10;0.10;;;;;;;13.76;60.37;97776.19;5056204;28;20412;-82
2023/11/04 11:13:18;;;;;;;0.10;0.10;;;;;;;13.60;60.98;97768.63;5054158;28;20029;-81
2023/11/04 11:15:45;;;;;;;0.10;0.10;;;;;;;13.39;60.94;97747.28;5066417;28;20084;-79
2023/11/04 11:18:12;;;;;;;0.10;0.10;;;;;;;13.36;61.40;97745.69;5064994;28;20037;-81
2023/11/04 11:20:38;;;;;;;0.10;0.10;;;;;;;13.30;61.59;97734.72;5061381;28;20044;-80
2023/11/04 11:23:08;;;;;;;0.10;0.10;;;;;;;13.31;61.90;97731.06;5060063;28;20088;-79
2023/11/04 11:25:37;;;;;;;0.10;0.10;;;;;;;13.15;62.46;97721.69;5060448;28;20025;-79
2023/11/04 11:28:20;;;;;;;0.10;0.10;;;;;;;13.11;62.29;97718.44;5063392;28;20033;-80
2023/11/04 11:30:53;;;;;;;0.10;0.10;;;;;;;13.00;62.98;97701.66;5059152;28;20028;-80
2023/11/04 11:33:25;;;;;;;0.20;0.20;;;;;;;13.02;62.93;97694.41;5064829;28;20032;-79